Time,TemperatureF,DewpointF,PressureIn,WindDirection,WindDirectionDegrees,WindSpeedMPH,WindSpeedGustMPH,Humidity,HourlyPrecipIn,Conditions,Clouds,dailyrainin,SoftwareType,DateUTC
2013-07-29 00:35:00,71.9,70.0,30.00,ENE,65,0.0,-999.0,93,-99.99,,,0.01,weatherlink.com 1.10,2013-07-29 04:35:00,
2013-07-29 00:42:00,71.3,70.0,30.01,East,80,0.0,-999.0,94,-99.99,,,0.10,weatherlink.com 1.10,2013-07-29 04:42:00,
2013-07-29 00:57:00,71.1,69.0,30.01,East,80,0.0,-999.0,94,-99.99,,,0.11,weatherlink.com 1.10,2013-07-29 04:57:00,
2013-07-29 01:37:00,71.0,69.0,30.00,East,80,0.0,-999.0,94,-99.99,,,0.11,weatherlink.com 1.10,2013-07-29 05:37:00,
2013-07-29 01:43:00,71.2,70.0,30.00,East,80,0.0,-999.0,95,-99.99,,,0.12,weatherlink.com 1.10,2013-07-29 05:43:00,
2013-07-29 01:58:00,71.2,70.0,29.99,East,80,0.0,-999.0,95,-99.99,,,0.12,weatherlink.com 1.10,2013-07-29 05:58:00,
2013-07-29 02:35:00,71.1,70.0,29.99,East,80,0.0,-999.0,95,-99.99,,,0.12,weatherlink.com 1.10,2013-07-29 06:35:00,
2013-07-29 02:42:00,71.1,70.0,29.99,East,80,0.0,-999.0,95,-99.99,,,0.12,weatherlink.com 1.10,2013-07-29 06:42:00,
2013-07-29 02:57:00,71.0,70.0,29.98,East,80,0.0,-999.0,95,-99.99,,,0.12,weatherlink.com 1.10,2013-07-29 06:57:00,
2013-07-29 03:37:00,70.8,69.0,29.99,East,80,0.0,-999.0,95,-99.99,,,0.12,weatherlink.com 1.10,2013-07-29 07:37:00,
2013-07-29 03:43:00,70.9,70.0,30.00,East,80,0.0,-999.0,95,-99.99,,,0.12,weatherlink.com 1.10,2013-07-29 07:43:00,
2013-07-29 03:58:00,70.9,70.0,30.00,East,80,0.0,-999.0,95,-99.99,,,0.12,weatherlink.com 1.10,2013-07-29 07:58:00,
2013-07-29 04:27:00,70.7,69.0,30.00,East,80,0.0,-999.0,95,-99.99,,,0.12,weatherlink.com 1.10,2013-07-29 08:27:00,
2013-07-29 04:42:00,70.6,69.0,30.01,East,80,0.0,-999.0,95,-99.99,,,0.12,weatherlink.com 1.10,2013-07-29 08:42:00,
2013-07-29 05:10:00,70.6,69.0,30.02,East,80,0.0,-999.0,95,-99.99,,,0.12,weatherlink.com 1.10,2013-07-29 09:10:00,
2013-07-29 05:27:00,70.2,69.0,30.02,East,80,0.0,-999.0,95,-99.99,,,0.12,weatherlink.com 1.10,2013-07-29 09:27:00,
2013-07-29 05:42:00,70.1,69.0,30.02,East,80,0.0,-999.0,95,-99.99,,,0.12,weatherlink.com 1.10,2013-07-29 09:42:00,
2013-07-29 06:08:00,70.1,69.0,30.02,East,80,0.0,-999.0,95,-99.99,,,0.12,weatherlink.com 1.10,2013-07-29 10:08:00,
2013-07-29 06:27:00,69.6,68.0,30.04,East,80,0.0,-999.0,95,-99.99,,,0.12,weatherlink.com 1.10,2013-07-29 10:27:00,
2013-07-29 06:42:00,69.4,68.0,30.05,East,80,0.0,-999.0,95,-99.99,,,0.12,weatherlink.com 1.10,2013-07-29 10:42:00,
2013-07-29 07:08:00,69.4,68.0,30.05,East,80,0.0,-999.0,95,-99.99,,,0.12,weatherlink.com 1.10,2013-07-29 11:08:00,
2013-07-29 07:42:00,69.7,68.0,30.06,East,80,0.0,-999.0,95,-99.99,,,0.12,weatherlink.com 1.10,2013-07-29 11:42:00,
2013-07-29 08:12:00,69.9,69.0,30.07,East,80,0.0,-999.0,95,-99.99,,,0.12,weatherlink.com 1.10,2013-07-29 12:12:00,
2013-07-29 08:27:00,70.0,69.0,30.07,East,80,0.0,-999.0,95,-99.99,,,0.12,weatherlink.com 1.10,2013-07-29 12:27:00,
2013-07-29 08:42:00,70.2,69.0,30.07,East,80,0.0,-999.0,95,-99.99,,,0.12,weatherlink.com 1.10,2013-07-29 12:42:00,
2013-07-29 09:09:00,70.2,69.0,30.07,East,80,0.0,-999.0,95,-99.99,,,0.12,weatherlink.com 1.10,2013-07-29 13:09:00,
2013-07-29 09:43:00,71.0,68.0,30.09,SW,225,0.0,-999.0,90,-99.99,,,0.12,weatherlink.com 1.10,2013-07-29 13:43:00,
2013-07-29 10:08:00,71.1,68.0,30.09,SW,223,0.0,-999.0,90,-99.99,,,0.12,weatherlink.com 1.10,2013-07-29 14:08:00,
2013-07-29 10:27:00,74.0,69.0,30.09,East,96,0.0,-999.0,84,-99.99,,,0.12,weatherlink.com 1.10,2013-07-29 14:27:00,
2013-07-29 10:42:00,74.7,69.0,30.10,East,96,0.0,-999.0,82,-99.99,,,0.12,weatherlink.com 1.10,2013-07-29 14:42:00,
2013-07-29 11:10:00,74.7,69.0,30.10,East,96,0.0,-999.0,81,-99.99,,,0.12,weatherlink.com 1.10,2013-07-29 15:10:00,
2013-07-29 11:28:00,76.5,68.0,30.11,East,87,1.0,-999.0,76,-99.99,,,0.12,weatherlink.com 1.10,2013-07-29 15:28:00,
2013-07-29 11:43:00,77.0,69.0,30.11,South,182,0.0,-999.0,77,-99.99,,,0.12,weatherlink.com 1.10,2013-07-29 15:43:00,
2013-07-29 12:08:00,77.0,69.0,30.11,South,182,0.0,-999.0,77,-99.99,,,0.12,weatherlink.com 1.10,2013-07-29 16:08:00,
2013-07-29 12:27:00,77.9,67.0,30.11,South,182,0.0,-999.0,70,-99.99,,,0.12,weatherlink.com 1.10,2013-07-29 16:27:00,
2013-07-29 13:09:00,78.5,69.0,30.10,SSW,206,0.0,-999.0,72,-99.99,,,0.12,weatherlink.com 1.10,2013-07-29 17:09:00,
2013-07-29 13:28:00,80.0,68.0,30.10,ESE,106,0.0,-999.0,67,-99.99,,,0.12,weatherlink.com 1.10,2013-07-29 17:28:00,
2013-07-29 13:43:00,79.8,68.0,30.10,ESE,106,0.0,-999.0,67,-99.99,,,0.12,weatherlink.com 1.10,2013-07-29 17:43:00,
2013-07-29 14:10:00,79.8,68.0,30.10,ESE,106,0.0,-999.0,67,-99.99,,,0.12,weatherlink.com 1.10,2013-07-29 18:10:00,
2013-07-29 14:28:00,82.2,68.0,30.08,ENE,78,0.0,-999.0,62,-99.99,,,0.12,weatherlink.com 1.10,2013-07-29 18:28:00,
2013-07-29 14:43:00,82.8,68.0,30.07,ENE,78,0.0,-999.0,62,-99.99,,,0.12,weatherlink.com 1.10,2013-07-29 18:43:00,
2013-07-29 15:12:00,83.2,69.0,30.07,East,80,1.0,-999.0,62,-99.99,,,0.12,weatherlink.com 1.10,2013-07-29 19:12:00,
2013-07-29 15:42:00,83.7,68.0,30.06,East,80,0.0,-999.0,59,-99.99,,,0.12,weatherlink.com 1.10,2013-07-29 19:42:00,
2013-07-29 16:12:00,83.8,67.0,30.06,East,80,0.0,-999.0,58,-99.99,,,0.12,weatherlink.com 1.10,2013-07-29 20:12:00,
2013-07-29 16:27:00,83.7,67.0,30.07,East,80,1.0,-999.0,58,-99.99,,,0.12,weatherlink.com 1.10,2013-07-29 20:27:00,
2013-07-29 16:42:00,83.6,67.0,30.07,East,80,0.0,-999.0,58,-99.99,,,0.12,weatherlink.com 1.10,2013-07-29 20:42:00,
2013-07-29 17:09:00,83.6,67.0,30.07,East,80,0.0,-999.0,58,-99.99,,,0.12,weatherlink.com 1.10,2013-07-29 21:09:00,
2013-07-29 17:28:00,83.7,66.0,30.09,East,80,1.0,-999.0,56,-99.99,,,0.12,weatherlink.com 1.10,2013-07-29 21:28:00,
2013-07-29 17:43:00,83.9,66.0,30.09,East,80,0.0,-999.0,55,-99.99,,,0.12,weatherlink.com 1.10,2013-07-29 21:43:00,
2013-07-29 18:08:00,83.9,66.0,30.09,East,80,0.0,-999.0,55,-99.99,,,0.12,weatherlink.com 1.10,2013-07-29 22:08:00,
2013-07-29 18:27:00,83.7,65.0,30.09,East,80,0.0,-999.0,54,-99.99,,,0.12,weatherlink.com 1.10,2013-07-29 22:27:00,
2013-07-29 18:42:00,83.4,66.0,30.08,East,80,0.0,-999.0,55,-99.99,,,0.12,weatherlink.com 1.10,2013-07-29 22:42:00,
2013-07-29 19:08:00,83.4,66.0,30.08,East,80,0.0,-999.0,55,-99.99,,,0.12,weatherlink.com 1.10,2013-07-29 23:08:00,
2013-07-29 19:42:00,81.5,66.0,30.10,East,80,0.0,-999.0,59,-99.99,,,0.12,weatherlink.com 1.10,2013-07-29 23:42:00,
2013-07-29 20:08:00,81.4,66.0,30.10,East,80,0.0,-999.0,60,-99.99,,,0.12,weatherlink.com 1.10,2013-07-30 00:08:00,
2013-07-29 20:27:00,78.2,66.0,30.12,East,80,0.0,-999.0,67,-99.99,,,0.12,weatherlink.com 1.10,2013-07-30 00:27:00,
2013-07-29 21:09:00,76.8,67.0,30.13,East,80,0.0,-999.0,71,-99.99,,,0.12,weatherlink.com 1.10,2013-07-30 01:09:00,
2013-07-29 21:28:00,74.4,67.0,30.14,East,80,0.0,-999.0,77,-99.99,,,0.12,weatherlink.com 1.10,2013-07-30 01:28:00,
2013-07-29 22:08:00,73.7,66.0,30.15,East,80,0.0,-999.0,77,-99.99,,,0.12,weatherlink.com 1.10,2013-07-30 02:08:00,
2013-07-29 22:42:00,72.3,67.0,30.14,East,80,0.0,-999.0,83,-99.99,,,0.12,weatherlink.com 1.10,2013-07-30 02:42:00,
2013-07-29 23:10:00,72.3,67.0,30.14,East,80,0.0,-999.0,83,-99.99,,,0.12,weatherlink.com 1.10,2013-07-30 03:10:00,
2013-07-29 23:42:00,70.9,66.0,30.15,East,80,0.0,-999.0,85,-99.99,,,0.12,weatherlink.com 1.10,2013-07-30 03:42:00,